Terminal Aerodrome Forecast
Issued by NWS

Home | Current Version | Previous Version | Text Only | Print | Product List | Glossary On
Versions: 1 2 3 4 5 6 7 8 9 10 11 12 13 14 15 16 17
000
FTUS46 KSTO 232320
TAFMHR
TAF
KMHR 232320Z 2400/2424 VRB03KT P6SM SCT030 SCT250
     FM240600 15005KT P6SM OVC250
     FM241500 15010KT P6SM OVC025
      TEMPO 2415/2418 4SM BR
     FM242100 17015KT 4SM -RA OVC025=

USA.gov is the U.S. government's official web portal to all federal, state and local government web resources and services.